Time;durP1;ratioP1;P1;durP2;ratioP2;P2;SDS_P1;SDS_P2;PMS_P1;PMS_P2;Temp;Humidity;BMP_temperature;BMP_pressure;BME280_temperature;BME280_humidity;BME280_pressure;Samples;Min_cycle;Max_cycle;Signal;HPM_P1;HPM_P2
2022/02/09 00:00:39;;;;;;;3.73;1.70;;;;;;;7.57;100.00;99597.88;5007241;28;20232;-79
2022/02/09 00:03:10;;;;;;;1.70;1.60;;;;;;;7.54;100.00;99595.38;5000404;28;20230;-79
2022/02/09 00:05:57;;;;;;;2.00;1.80;;;;;;;7.64;100.00;99587.09;4999995;28;20734;-79
2022/02/09 00:08:24;;;;;;;1.80;1.50;;;;;;;7.68;100.00;99582.59;5005194;28;20223;-79
2022/02/09 00:10:56;;;;;;;2.00;1.30;;;;;;;7.72;100.00;99581.59;5001196;28;20217;-78
2022/02/09 00:16:21;;;;;;;2.50;1.70;;;;;;;7.73;100.00;99578.03;4998731;28;20235;-79
2022/02/09 00:18:54;;;;;;;4.07;2.03;;;;;;;7.64;100.00;99589.72;5000709;28;20313;-79
2022/02/09 00:21:38;;;;;;;3.80;1.70;;;;;;;7.69;100.00;99593.06;5000045;28;20218;-79
2022/02/09 00:27:16;;;;;;;3.97;1.87;;;;;;;7.65;100.00;99585.34;4992356;28;20417;-79
2022/02/09 00:32:52;;;;;;;3.70;2.20;;;;;;;7.67;100.00;99594.91;5000096;28;20253;-79
2022/02/09 00:41:19;;;;;;;5.47;2.80;;;;;;;7.59;100.00;99588.19;5001457;28;20307;-79
2022/02/09 01:11:50;;;;;;;3.90;2.10;;;;;;;7.52;100.00;99573.50;4979412;28;20277;-79
2022/02/09 01:39:12;;;;;;;3.33;1.90;;;;;;;7.63;100.00;99561.72;5004481;28;20251;-78
2022/02/09 01:55:40;;;;;;;3.10;1.73;;;;;;;7.72;100.00;99542.09;5001080;28;20237;-79
2022/02/09 01:58:07;;;;;;;3.10;1.60;;;;;;;7.72;100.00;99539.47;4996711;28;20214;-80
2022/02/09 02:00:35;;;;;;;2.80;1.77;;;;;;;7.72;100.00;99556.09;5007412;28;20242;-80
2022/02/09 02:03:02;;;;;;;2.73;1.50;;;;;;;7.75;100.00;99547.25;5005296;28;20224;-80
2022/02/09 02:05:29;;;;;;;1.73;1.50;;;;;;;7.76;100.00;99541.06;5001985;28;20580;-80
2022/02/09 02:07:59;;;;;;;2.00;1.57;;;;;;;7.79;100.00;99546.25;5005151;28;20219;-80
2022/02/09 02:10:33;;;;;;;2.60;1.50;;;;;;;7.78;100.00;99531.38;5004902;28;20221;-78
2022/02/09 02:13:12;;;;;;;1.80;1.27;;;;;;;7.77;100.00;99521.75;4998775;28;20222;-80
2022/02/09 02:18:26;;;;;;;2.33;1.37;;;;;;;7.75;100.00;99524.44;5000821;28;20595;-78
2022/02/09 02:21:04;;;;;;;1.73;1.63;;;;;;;7.70;100.00;99521.09;5004311;28;20219;-78
2022/02/09 02:23:48;;;;;;;3.40;2.00;;;;;;;7.71;100.00;99521.97;4996569;28;20215;-80
2022/02/09 02:26:26;;;;;;;2.80;2.20;;;;;;;7.70;100.00;99517.59;5003856;28;20269;-78
2022/02/09 02:29:11;;;;;;;3.37;2.40;;;;;;;7.67;100.00;99509.81;5002838;28;20674;-80
2022/02/09 02:34:45;;;;;;;2.60;2.40;;;;;;;7.62;100.00;99506.50;5000302;28;20599;-78
2022/02/09 02:37:39;;;;;;;3.40;2.57;;;;;;;7.63;100.00;99497.69;5001941;28;20223;-78
2022/02/09 02:57:09;;;;;;;5.20;3.13;;;;;;;7.59;100.00;99491.69;5003427;28;20221;-79
2022/02/09 02:59:44;;;;;;;4.83;3.50;;;;;;;7.60;100.00;99492.56;5006857;28;20212;-80
2022/02/09 03:13:17;;;;;;;7.00;3.93;;;;;;;7.53;100.00;99485.78;5005443;28;20216;-80
2022/02/09 03:15:50;;;;;;;6.63;3.93;;;;;;;7.54;100.00;99484.88;5002756;28;20645;-79
2022/02/09 03:18:38;;;;;;;8.37;4.00;;;;;;;7.57;100.00;99487.38;5002919;28;20216;-80
2022/02/09 03:21:16;;;;;;;5.80;4.23;;;;;;;7.55;100.00;99484.81;5005253;28;20674;-80
2022/02/09 03:23:47;;;;;;;7.93;4.10;;;;;;;7.55;100.00;99489.22;5001262;28;20245;-78
2022/02/09 03:26:42;;;;;;;8.53;4.77;;;;;;;7.58;100.00;99473.31;5000932;28;20628;-78
2022/02/09 03:43:00;;;;;;;6.07;4.33;;;;;;;7.50;100.00;99463.09;5004590;28;20613;-78
2022/02/09 03:51:20;;;;;;;8.00;4.17;;;;;;;7.50;100.00;99459.59;4966005;28;20573;-80
2022/02/09 03:53:57;;;;;;;6.90;4.43;;;;;;;7.47;100.00;99465.81;5001723;28;20220;-78
2022/02/09 03:56:42;;;;;;;5.93;4.17;;;;;;;7.46;100.00;99463.22;5004351;28;20224;-78
2022/02/09 03:59:08;;;;;;;6.70;4.20;;;;;;;7.48;100.00;99461.41;5002982;28;20273;-80
2022/02/09 04:01:40;;;;;;;7.43;4.47;;;;;;;7.44;100.00;99465.94;5002507;28;20237;-80
2022/02/09 04:04:07;;;;;;;8.13;4.53;;;;;;;7.44;100.00;99468.56;4999518;28;20718;-79
2022/02/09 04:06:36;;;;;;;6.93;4.50;;;;;;;7.43;100.00;99460.72;4999443;28;20340;-80
2022/02/09 04:09:07;;;;;;;8.77;4.63;;;;;;;7.42;100.00;99465.09;5001842;28;20268;-80
2022/02/09 04:11:39;;;;;;;8.90;5.27;;;;;;;7.36;100.00;99456.59;5003731;28;20213;-78
2022/02/09 04:14:07;;;;;;;5.53;4.07;;;;;;;7.34;100.00;99458.44;5001183;28;20214;-78
2022/02/09 04:16:48;;;;;;;8.63;4.83;;;;;;;7.38;100.00;99457.38;5000910;28;20300;-78
2022/02/09 04:19:27;;;;;;;6.70;4.97;;;;;;;7.38;100.00;99460.00;5002297;28;20245;-79
2022/02/09 04:38:34;;;;;;;5.37;4.00;;;;;;;7.41;100.00;99454.66;5001757;28;20235;-79
2022/02/09 04:41:23;;;;;;;6.90;4.50;;;;;;;7.40;100.00;99455.53;5000851;28;20220;-78
2022/02/09 04:44:11;;;;;;;6.53;4.20;;;;;;;7.39;100.00;99462.59;5005218;28;20217;-79
2022/02/09 04:52:28;;;;;;;8.77;4.60;;;;;;;7.37;100.00;99458.31;5004314;28;20236;-78
2022/02/09 04:55:01;;;;;;;6.90;4.57;;;;;;;7.38;100.00;99455.63;4999585;28;20555;-79
2022/02/09 04:57:34;;;;;;;5.67;4.20;;;;;;;7.39;100.00;99456.47;4998945;28;20588;-79
2022/02/09 05:00:17;;;;;;;5.83;4.20;;;;;;;7.38;100.00;99445.09;5004289;28;20221;-79
2022/02/09 05:03:15;;;;;;;6.00;4.07;;;;;;;7.41;100.00;99449.41;4998234;28;20276;-79
2022/02/09 05:28:02;;;;;;;3.97;2.40;;;;;;;7.45;100.00;99441.34;4998980;28;20283;-79
2022/02/09 05:30:28;;;;;;;4.90;2.57;;;;;;;7.44;100.00;99438.75;5001463;28;20726;-78
2022/02/09 05:32:55;;;;;;;4.87;2.80;;;;;;;7.43;100.00;99442.31;4998367;28;20607;-78
2022/02/09 05:35:22;;;;;;;4.13;2.60;;;;;;;7.43;100.00;99442.31;5000765;28;20225;-77
2022/02/09 05:37:49;;;;;;;5.83;3.00;;;;;;;7.44;100.00;99438.75;5002224;28;20213;-78
2022/02/09 05:40:17;;;;;;;3.80;2.70;;;;;;;7.43;100.00;99442.31;4998335;28;20616;-79
2022/02/09 05:42:43;;;;;;;4.23;2.80;;;;;;;7.41;100.00;99444.97;4998530;28;20217;-79
2022/02/09 05:45:11;;;;;;;4.07;2.57;;;;;;;7.38;100.00;99447.72;5000657;28;20221;-79
2022/02/09 05:50:29;;;;;;;5.83;3.50;;;;;;;7.34;100.00;99442.66;5001510;28;20221;-78
2022/02/09 05:53:06;;;;;;;5.27;3.17;;;;;;;7.36;100.00;99443.44;4999662;28;20572;-79
2022/02/09 05:55:45;;;;;;;4.03;3.07;;;;;;;7.32;100.00;99441.81;5000145;28;20224;-77
2022/02/09 05:58:21;;;;;;;4.30;2.80;;;;;;;7.34;100.00;99447.91;4998323;28;20217;-78
2022/02/09 06:00:48;;;;;;;5.57;3.10;;;;;;;7.34;100.00;99448.75;5003626;28;20244;-79
2022/02/09 06:03:16;;;;;;;4.57;3.20;;;;;;;7.33;100.00;99449.66;5005485;28;20745;-77
2022/02/09 06:05:42;;;;;;;5.03;2.73;;;;;;;7.32;100.00;99444.44;5002532;28;20222;-78
2022/02/09 06:08:09;;;;;;;4.87;2.90;;;;;;;7.37;100.00;99450.41;5001849;28;20221;-78
2022/02/09 06:10:38;;;;;;;2.90;2.60;;;;;;;7.36;100.00;99452.16;5003063;28;20210;-78
2022/02/09 06:13:15;;;;;;;3.73;2.47;;;;;;;7.36;100.00;99453.97;5005513;28;20260;-77
2022/02/09 06:21:13;;;;;;;5.07;2.50;;;;;;;7.35;100.00;99460.97;5002491;28;20258;-78
2022/02/09 06:23:40;;;;;;;4.43;2.50;;;;;;;7.36;100.00;99457.44;5001674;28;20644;-79
2022/02/09 06:26:08;;;;;;;4.57;2.43;;;;;;;7.40;100.00;99466.06;5001303;28;20241;-78
2022/02/09 06:28:34;;;;;;;4.93;2.70;;;;;;;7.39;100.00;99461.72;5005056;28;20214;-78
2022/02/09 06:31:01;;;;;;;3.97;2.60;;;;;;;7.39;100.00;99462.59;5004376;28;20269;-77
2022/02/09 06:33:28;;;;;;;4.20;2.53;;;;;;;7.38;100.00;99453.91;5001210;28;20680;-80
2022/02/09 06:35:57;;;;;;;2.80;2.10;;;;;;;7.39;100.00;99448.56;5001465;28;20210;-79
2022/02/09 06:38:23;;;;;;;3.63;2.50;;;;;;;7.38;100.00;99455.63;5004657;28;20213;-79
2022/02/09 06:40:53;;;;;;;3.43;2.50;;;;;;;7.42;100.00;99451.94;5003911;28;20693;-80
2022/02/09 06:43:22;;;;;;;3.47;2.27;;;;;;;7.41;100.00;99458.13;5001032;28;20267;-79
2022/02/09 06:45:48;;;;;;;4.40;2.43;;;;;;;7.43;100.00;99447.56;5001281;28;20224;-78
2022/02/09 06:48:17;;;;;;;5.07;2.40;;;;;;;7.44;100.00;99450.16;5003087;28;20228;-78
2022/02/09 06:50:47;;;;;;;3.90;2.40;;;;;;;7.44;100.00;99454.53;5003283;28;20631;-78
2022/02/09 06:53:28;;;;;;;5.97;2.50;;;;;;;7.43;100.00;99463.34;5001141;28;20213;-77
2022/02/09 06:55:57;;;;;;;3.33;2.37;;;;;;;7.41;100.00;99459.91;5002684;28;20217;-78
2022/02/09 06:58:44;;;;;;;6.90;2.60;;;;;;;7.41;100.00;99449.41;5004454;28;20268;-78
2022/02/09 07:01:11;;;;;;;4.10;2.30;;;;;;;7.41;100.00;99455.50;5004295;28;20214;-79
2022/02/09 07:03:37;;;;;;;3.53;2.77;;;;;;;7.45;100.00;99448.34;5001162;28;20683;-79
2022/02/09 07:06:04;;;;;;;4.37;2.63;;;;;;;7.45;100.00;99441.34;5004188;28;20224;-79
2022/02/09 07:08:30;;;;;;;2.60;1.90;;;;;;;7.49;100.00;99447.34;5005057;28;20221;-79
2022/02/09 07:10:57;;;;;;;3.40;2.40;;;;;;;7.46;100.00;99447.44;5000068;28;20221;-80
2022/02/09 07:13:25;;;;;;;3.93;2.80;;;;;;;7.47;100.00;99451.81;4999217;28;20336;-79
2022/02/09 07:15:54;;;;;;;3.63;2.60;;;;;;;7.49;100.00;99452.59;5001233;28;20227;-79
2022/02/09 07:18:23;;;;;;;3.70;2.50;;;;;;;7.56;100.00;99454.09;5002483;28;20214;-78
2022/02/09 07:20:57;;;;;;;4.23;2.40;;;;;;;7.54;100.00;99448.88;5000693;28;20253;-77
2022/02/09 07:23:29;;;;;;;4.73;2.40;;;;;;;7.52;100.00;99448.09;5001873;28;20221;-78
2022/02/09 07:26:09;;;;;;;4.23;2.27;;;;;;;7.50;100.00;99443.78;5004449;28;20262;-77
2022/02/09 07:28:37;;;;;;;4.30;2.33;;;;;;;7.39;100.00;99440.69;5005244;28;20631;-78
2022/02/09 07:31:06;;;;;;;6.77;2.53;;;;;;;7.33;100.00;99443.53;5011092;28;20429;-78
2022/02/09 07:33:33;;;;;;;5.53;2.33;;;;;;;7.29;100.00;99440.16;5000694;28;20239;-77
2022/02/09 07:36:00;;;;;;;1.70;1.60;;;;;;;7.24;100.00;99438.63;5002472;28;20240;-78
2022/02/09 07:38:27;;;;;;;4.93;2.40;;;;;;;7.11;100.00;99445.22;5000531;28;20253;-78
2022/02/09 07:40:57;;;;;;;2.87;1.80;;;;;;;7.02;100.00;99444.69;4998636;28;20217;-78
2022/02/09 07:43:28;;;;;;;3.03;1.70;;;;;;;6.93;100.00;99440.59;5000710;28;20408;-79
2022/02/09 07:46:19;;;;;;;3.97;1.97;;;;;;;6.88;100.00;99445.13;5001370;28;20217;-79
2022/02/09 07:49:02;;;;;;;2.30;1.77;;;;;;;6.82;100.00;99441.84;5006970;28;20221;-79
2022/02/09 07:51:43;;;;;;;4.10;2.30;;;;;;;6.78;100.00;99451.59;5002175;28;20213;-79
2022/02/09 07:54:12;;;;;;;4.53;2.60;;;;;;;6.74;100.00;99452.63;5002974;28;20222;-78
2022/02/09 07:56:41;;;;;;;3.67;2.43;;;;;;;6.72;100.00;99449.19;5000054;28;20211;-78
2022/02/09 07:59:09;;;;;;;4.17;2.90;;;;;;;6.69;100.00;99451.91;5000023;28;20217;-78
2022/02/09 08:01:38;;;;;;;4.47;3.10;;;;;;;6.73;100.00;99450.03;5004319;28;20220;-78
2022/02/09 08:04:05;;;;;;;6.13;3.03;;;;;;;6.74;100.00;99450.00;4999561;28;20232;-78
2022/02/09 08:06:33;;;;;;;5.17;3.07;;;;;;;6.73;100.00;99436.91;4998149;28;20238;-77
2022/02/09 08:09:06;;;;;;;4.73;3.13;;;;;;;6.74;100.00;99439.50;5002963;28;20233;-79
2022/02/09 08:11:39;;;;;;;6.77;3.73;;;;;;;6.74;100.00;99436.00;5000428;28;20586;-78
2022/02/09 08:27:55;;;;;;;6.67;3.37;;;;;;;6.80;100.00;99434.03;5001710;28;20283;-79
2022/02/09 08:30:43;;;;;;;5.63;3.30;;;;;;;6.80;100.00;99427.91;5001239;28;20249;-79
2022/02/09 08:33:17;;;;;;;6.73;3.87;;;;;;;6.84;100.00;99419.03;4997956;28;20307;-79
2022/02/09 08:35:45;;;;;;;8.30;4.07;;;;;;;6.88;100.00;99418.84;5002553;28;20230;-79
2022/02/09 08:38:11;;;;;;;7.97;3.43;;;;;;;6.94;100.00;99421.28;5002246;28;20213;-77
2022/02/09 08:40:38;;;;;;;6.00;3.50;;;;;;;6.95;100.00;99417.72;4999888;28;21302;-78
2022/02/09 08:43:05;;;;;;;4.57;3.63;;;;;;;6.96;100.00;99414.19;4998538;28;20219;-77
2022/02/09 08:45:32;;;;;;;7.90;3.83;;;;;;;7.01;100.00;99417.53;4997493;28;20245;-79
2022/02/09 08:48:00;;;;;;;6.03;3.77;;;;;;;7.03;100.00;99415.69;4999148;28;20246;-80
2022/02/09 08:50:28;;;;;;;8.13;4.20;;;;;;;7.02;100.00;99418.41;5001346;28;20626;-80
2022/02/09 08:52:55;;;;;;;6.20;3.83;;;;;;;7.06;100.00;99414.72;4997561;28;20305;-79
2022/02/09 08:55:22;;;;;;;5.57;3.70;;;;;;;7.13;100.00;99411.84;4997800;28;20217;-79
2022/02/09 08:57:49;;;;;;;8.50;3.40;;;;;;;7.22;100.00;99412.38;4999379;28;20218;-80
2022/02/09 09:00:22;;;;;;;5.43;3.80;;;;;;;7.31;100.00;99413.81;4999834;28;20209;-80
2022/02/09 09:02:58;;;;;;;8.53;3.90;;;;;;;7.33;100.00;99404.09;4997823;28;20593;-80
2022/02/09 09:05:30;;;;;;;5.30;3.47;;;;;;;7.44;100.00;99396.66;4997900;28;20220;-80
2022/02/09 09:08:12;;;;;;;5.17;3.67;;;;;;;7.49;100.00;99406.13;4998961;28;20307;-80
2022/02/09 09:10:48;;;;;;;7.40;3.80;;;;;;;7.57;100.00;99400.56;5003389;28;20213;-79
2022/02/09 09:18:59;;;;;;;5.33;3.37;;;;;;;7.79;100.00;99399.69;5002497;28;20620;-79
2022/02/09 09:58:00;;;;;;;4.87;3.00;;;;;;;8.58;94.57;99393.00;4947796;29;20398;-82
2022/02/09 09:58:27;;;;;;;7.13;3.37;;;;;;;8.99;89.69;99388.66;5010014;28;20239;-79
2022/02/09 10:03:56;;;;;;;8.00;3.70;;;;;;;9.21;91.81;99387.66;4997790;28;20224;-79
2022/02/09 10:34:19;;;;;;;3.00;1.87;;;;;;;9.60;90.29;99358.63;5007047;28;20701;-77
2022/02/09 10:36:49;;;;;;;2.70;1.90;;;;;;;9.65;89.53;99361.88;5003755;28;20240;-79
2022/02/09 10:39:20;;;;;;;4.27;1.90;;;;;;;9.77;89.74;99358.69;5001702;28;20228;-79
2022/02/09 10:41:56;;;;;;;5.23;2.00;;;;;;;9.79;89.59;99354.19;5008156;28;20596;-79
2022/02/09 10:44:25;;;;;;;5.27;2.20;;;;;;;9.85;87.25;99352.13;5009958;28;20220;-78
2022/02/09 10:46:55;;;;;;;5.67;2.20;;;;;;;9.92;88.50;99344.78;5007992;28;20561;-78
2022/02/09 10:49:28;;;;;;;4.80;2.00;;;;;;;9.93;86.67;99341.19;5010371;28;20251;-78
2022/02/09 10:52:06;;;;;;;3.27;2.10;;;;;;;9.90;86.68;99336.06;5008257;28;20214;-79
2022/02/09 10:54:35;;;;;;;3.07;2.13;;;;;;;9.84;87.00;99326.63;4996818;28;20218;-77
2022/02/09 10:57:07;;;;;;;5.97;2.20;;;;;;;9.83;85.40;99321.44;4996506;28;20707;-78
2022/02/09 10:59:37;;;;;;;4.13;2.20;;;;;;;9.91;87.96;99319.28;4998773;28;20214;-78
2022/02/09 11:02:06;;;;;;;2.80;1.70;;;;;;;9.91;86.49;99319.28;4996711;28;20248;-77
2022/02/09 11:04:33;;;;;;;5.30;2.00;;;;;;;9.89;86.65;99313.22;4996449;28;20228;-77
2022/02/09 11:07:00;;;;;;;4.03;2.20;;;;;;;9.94;86.78;99308.56;4996280;28;20675;-77
2022/02/09 11:09:28;;;;;;;4.70;2.40;;;;;;;10.10;86.29;99294.56;4998560;28;20212;-77
2022/02/09 11:11:55;;;;;;;4.07;2.10;;;;;;;10.07;84.12;99288.59;4995152;28;20220;-77
2022/02/09 11:14:23;;;;;;;4.43;2.70;;;;;;;10.01;86.21;99291.50;4996548;28;20559;-78
2022/02/09 11:16:54;;;;;;;4.60;2.40;;;;;;;10.03;85.71;99281.72;5000348;28;20250;-78
2022/02/09 11:19:32;;;;;;;4.80;2.53;;;;;;;10.04;85.91;99288.75;5007029;28;20214;-78
2022/02/09 11:22:05;;;;;;;4.17;2.47;;;;;;;9.95;86.19;99273.31;5009247;28;20216;-75
2022/02/09 11:24:32;;;;;;;4.20;2.50;;;;;;;10.11;84.56;99274.31;5008910;28;20224;-77
2022/02/09 11:27:13;;;;;;;3.77;2.00;;;;;;;10.22;83.86;99272.00;5007866;28;20277;-76
2022/02/09 11:29:46;;;;;;;3.47;2.27;;;;;;;10.40;83.80;99273.72;5001424;28;20281;-78
2022/02/09 11:32:24;;;;;;;5.70;2.50;;;;;;;10.31;82.62;99260.94;5008812;28;20307;-77
2022/02/09 11:35:25;;;;;;;5.10;2.70;;;;;;;10.28;81.17;99261.97;4998651;28;20227;-77
2022/02/09 11:38:11;;;;;;;3.30;2.10;;;;;;;10.28;81.40;99261.97;4993859;28;20501;-77
2022/02/09 11:40:44;;;;;;;4.07;2.37;;;;;;;10.34;81.73;99260.81;4999467;28;20241;-77
2022/02/09 11:43:38;;;;;;;3.93;2.40;;;;;;;10.32;82.35;99262.66;4999888;28;20218;-78
2022/02/09 11:46:23;;;;;;;4.90;2.30;;;;;;;10.24;81.83;99255.13;4996324;28;20221;-77
2022/02/09 11:49:50;;;;;;;2.97;2.07;;;;;;;10.23;81.83;99258.72;5009707;28;20245;-77
2022/02/09 12:10:20;;;;;;;4.07;2.63;;;;;;;10.67;80.52;99233.50;4998039;28;20296;-78
2022/02/09 12:13:01;;;;;;;3.43;2.13;;;;;;;10.71;79.17;99231.56;4999904;28;20211;-78
2022/02/09 12:18:36;;;;;;;5.13;2.43;;;;;;;10.73;80.65;99219.09;4992733;28;20290;-79
2022/02/09 12:21:15;;;;;;;6.67;2.53;;;;;;;10.83;81.58;99215.03;4995332;28;20222;-77
2022/02/09 12:23:46;;;;;;;3.73;2.77;;;;;;;10.82;80.74;99208.06;4995298;28;20214;-79
2022/02/09 12:26:14;;;;;;;6.27;2.40;;;;;;;10.85;78.59;99214.03;4999234;28;20221;-78
2022/02/09 12:28:43;;;;;;;3.63;2.33;;;;;;;10.84;77.81;99192.94;5007742;28;20261;-79
2022/02/09 12:31:12;;;;;;;5.10;2.63;;;;;;;10.92;79.11;99201.31;5006199;28;20249;-79
2022/02/09 12:33:43;;;;;;;4.33;2.40;;;;;;;10.98;79.06;99195.69;5007706;28;20368;-79
2022/02/09 12:36:16;;;;;;;4.10;2.57;;;;;;;11.06;78.92;99204.09;4988591;28;20222;-79
2022/02/09 12:38:45;;;;;;;5.23;2.43;;;;;;;11.12;77.62;99203.75;4995014;28;20214;-79
2022/02/09 12:41:15;;;;;;;4.47;2.83;;;;;;;11.15;77.64;99198.28;4994736;28;20222;-79
2022/02/09 12:43:56;;;;;;;5.83;2.63;;;;;;;11.20;76.93;99186.50;4997304;28;20221;-80
2022/02/09 12:46:26;;;;;;;4.23;2.07;;;;;;;11.22;77.56;99184.66;5000336;28;20701;-80
2022/02/09 12:48:54;;;;;;;5.10;2.77;;;;;;;11.23;78.05;99181.06;5007444;28;20240;-78
2022/02/09 12:51:25;;;;;;;4.33;2.30;;;;;;;11.36;79.98;99191.78;5005523;28;20224;-79
2022/02/09 12:53:54;;;;;;;4.57;2.30;;;;;;;11.35;78.86;99184.81;5005786;28;20217;-81
2022/02/09 12:56:22;;;;;;;5.87;2.67;;;;;;;11.45;79.07;99186.88;4994441;28;20219;-79
2022/02/09 12:59:06;;;;;;;4.40;2.10;;;;;;;11.51;77.12;99185.66;4993070;28;20221;-78
2022/02/09 13:01:41;;;;;;;4.00;2.30;;;;;;;11.53;78.70;99179.34;4997882;28;20214;-79
2022/02/09 13:04:08;;;;;;;4.70;2.80;;;;;;;11.49;75.09;99176.97;5007532;28;20230;-79
2022/02/09 13:06:34;;;;;;;5.30;2.33;;;;;;;11.50;76.53;99176.03;5007169;28;20220;-80
2022/02/09 13:09:02;;;;;;;3.03;1.90;;;;;;;11.58;77.64;99161.44;5006892;28;20728;-80
2022/02/09 13:11:31;;;;;;;4.93;2.50;;;;;;;11.68;76.44;99164.41;5004817;28;20220;-80
2022/02/09 13:14:06;;;;;;;3.50;2.10;;;;;;;11.63;75.35;99158.53;5003075;28;20261;-79
2022/02/09 13:16:53;;;;;;;4.90;2.20;;;;;;;11.67;74.37;99160.06;4996806;28;20808;-80
2022/02/09 13:20:08;;;;;;;4.43;2.37;;;;;;;11.62;74.62;99147.06;4996029;28;20677;-78
2022/02/09 13:54:55;;;;;;;2.43;1.90;;;;;;;11.72;73.37;99128.84;4993831;28;20747;-78
2022/02/09 14:11:27;;;;;;;3.27;1.77;;;;;;;11.73;75.37;99098.81;5006725;28;20213;-79
2022/02/09 14:14:07;;;;;;;3.23;2.00;;;;;;;11.68;74.84;99096.41;5004799;28;20218;-78
2022/02/09 14:16:54;;;;;;;4.40;1.90;;;;;;;11.67;75.64;99092.06;5005048;28;20313;-78
2022/02/09 14:19:34;;;;;;;3.23;1.80;;;;;;;11.69;76.70;99102.56;4992910;28;20306;-78
2022/02/09 14:55:15;;;;;;;1.77;1.50;;;;;;;11.18;78.89;99076.41;4995950;28;20769;-79
2022/02/09 14:57:49;;;;;;;3.23;1.50;;;;;;;11.14;80.53;99081.00;5007190;28;20216;-79
2022/02/09 15:00:21;;;;;;;3.73;1.57;;;;;;;11.10;82.04;99075.97;5012275;28;20300;-79
2022/02/09 15:03:02;;;;;;;2.13;1.70;;;;;;;11.18;78.96;99073.78;5012232;28;20219;-79
2022/02/09 15:08:21;;;;;;;3.03;1.70;;;;;;;11.28;76.71;99088.16;5009442;28;20319;-79
2022/02/09 15:10:54;;;;;;;3.00;1.97;;;;;;;11.24;77.28;99081.31;5006975;28;20224;-79
2022/02/09 15:13:34;;;;;;;5.60;1.80;;;;;;;11.19;78.69;99078.13;5006379;28;20255;-79
2022/02/09 15:16:09;;;;;;;2.60;1.90;;;;;;;11.15;78.68;99081.88;5003516;28;20215;-78
2022/02/09 15:19:09;;;;;;;1.97;1.53;;;;;;;11.08;80.45;99085.81;5011596;28;20626;-78
2022/02/09 15:24:12;;;;;;;2.70;1.43;;;;;;;10.90;83.37;99081.53;5011023;28;20587;-78
2022/02/09 15:26:38;;;;;;;1.83;1.50;;;;;;;10.77;84.73;99083.16;5007388;28;20620;-78
2022/02/09 15:29:05;;;;;;;2.43;1.80;;;;;;;10.71;86.09;99075.56;5005778;28;20249;-79
2022/02/09 15:31:37;;;;;;;2.87;1.70;;;;;;;10.60;86.97;99077.94;5008251;28;20231;-78
2022/02/09 15:34:13;;;;;;;3.07;1.80;;;;;;;10.57;86.61;99083.38;5008677;28;20219;-77
2022/02/09 15:36:54;;;;;;;2.57;1.63;;;;;;;10.51;85.95;99073.16;5007923;28;20279;-78
2022/02/09 15:39:22;;;;;;;2.83;2.00;;;;;;;10.48;85.18;99068.88;4999549;28;20216;-78
2022/02/09 15:42:03;;;;;;;2.40;1.53;;;;;;;10.53;83.82;99065.97;5008591;28;20213;-78
2022/02/09 15:58:34;;;;;;;2.20;1.70;;;;;;;10.62;78.64;99066.34;4995982;28;20694;-78
2022/02/09 16:06:57;;;;;;;2.70;1.63;;;;;;;10.62;78.65;99057.53;4999490;28;20224;-80
2022/02/09 16:09:26;;;;;;;4.33;2.20;;;;;;;10.57;79.44;99062.22;5010448;28;20326;-82
2022/02/09 16:23:09;;;;;;;3.30;1.97;;;;;;;10.25;81.19;99055.19;5003615;28;20223;-76
2022/02/09 16:25:54;;;;;;;5.50;1.83;;;;;;;10.19;81.61;99044.94;5006720;28;20300;-77
2022/02/09 16:44:54;;;;;;;2.83;1.57;;;;;;;9.37;86.92;99043.03;4993961;28;20221;-79
2022/02/09 16:47:40;;;;;;;2.90;1.80;;;;;;;9.33;86.95;99032.72;4994547;28;20585;-78
2022/02/09 16:50:13;;;;;;;2.13;1.90;;;;;;;9.37;87.15;99029.84;4984942;28;20241;-78
2022/02/09 16:52:44;;;;;;;5.83;2.90;;;;;;;9.36;87.03;99030.78;5010284;28;20223;-78
2022/02/09 17:19:45;;;;;;;4.60;2.00;;;;;;;8.33;97.88;99043.78;5058646;28;20594;-77
2022/02/09 17:22:12;;;;;;;5.03;2.53;;;;;;;8.23;99.04;99051.25;5067828;28;20207;-77
2022/02/09 17:24:39;;;;;;;4.20;2.60;;;;;;;8.19;100.00;99049.66;5066816;28;20212;-77
2022/02/09 17:27:11;;;;;;;3.93;3.00;;;;;;;8.17;100.00;99048.84;5067307;28;20217;-77
2022/02/09 17:29:54;;;;;;;4.20;2.77;;;;;;;8.17;100.00;99043.59;5068110;28;20244;-76
2022/02/09 17:32:31;;;;;;;3.53;2.63;;;;;;;8.22;99.92;99048.66;5066644;28;20211;-77
2022/02/09 17:35:03;;;;;;;4.53;2.50;;;;;;;8.17;99.79;99048.84;5065390;28;20293;-77
2022/02/09 17:37:48;;;;;;;3.80;2.70;;;;;;;8.15;99.98;99049.84;5067990;28;20223;-78
2022/02/09 17:54:00;;;;;;;7.97;3.93;;;;;;;7.65;100.00;99053.84;5066347;28;20264;-75
2022/02/09 17:56:29;;;;;;;6.33;4.13;;;;;;;7.52;100.00;99050.88;5068027;28;20259;-75
2022/02/09 17:59:00;;;;;;;6.23;3.97;;;;;;;7.48;100.00;99058.97;5056951;28;20216;-75
2022/02/09 18:01:27;;;;;;;6.07;3.57;;;;;;;7.44;100.00;99049.47;5061153;28;20208;-75
2022/02/09 18:03:54;;;;;;;4.13;3.27;;;;;;;7.44;100.00;99052.09;5061433;28;20240;-76
2022/02/09 18:06:25;;;;;;;6.23;4.00;;;;;;;7.39;100.00;99048.81;5059293;28;20316;-77
2022/02/09 18:08:58;;;;;;;5.43;3.67;;;;;;;7.28;100.00;99054.53;5063070;28;20220;-75
2022/02/09 18:11:51;;;;;;;6.43;4.57;;;;;;;7.24;100.00;99058.19;5067941;28;20249;-75
2022/02/09 18:14:32;;;;;;;7.00;3.80;;;;;;;7.17;100.00;99055.91;5064324;28;20237;-75
2022/02/09 18:25:30;;;;;;;5.23;3.80;;;;;;;6.98;100.00;99059.31;5049084;28;20624;-76
2022/02/09 18:28:53;;;;;;;9.33;4.27;;;;;;;6.89;100.00;99063.19;5046269;28;20216;-76
2022/02/09 18:31:10;;;;;;;5.93;4.00;;;;;;;6.84;100.00;99054.63;5048193;28;20232;-75
2022/02/09 18:33:51;;;;;;;4.23;3.27;;;;;;;6.78;100.00;99057.47;5045744;28;20212;-76
2022/02/09 18:44:32;;;;;;;10.00;4.60;;;;;;;6.43;100.00;99050.13;5048388;28;20219;-77
2022/02/09 18:47:37;;;;;;;5.63;4.20;;;;;;;6.43;100.00;99050.13;5047104;28;20220;-76
2022/02/09 19:01:35;;;;;;;6.50;4.30;;;;;;;6.38;100.00;99053.84;5046302;28;20615;-74
2022/02/09 19:04:10;;;;;;;10.27;4.33;;;;;;;6.43;100.00;99044.88;5045771;28;20247;-75
2022/02/09 19:07:08;;;;;;;5.40;4.03;;;;;;;6.45;100.00;99043.03;5047680;28;20216;-75
2022/02/09 19:15:18;;;;;;;6.73;4.50;;;;;;;6.32;100.00;99020.81;5038431;28;20251;-75
2022/02/09 19:17:52;;;;;;;6.80;5.30;;;;;;;6.30;100.00;99027.03;5045609;28;20570;-74
2022/02/09 19:20:39;;;;;;;5.33;4.83;;;;;;;6.29;100.00;99031.41;5038413;28;20223;-75
2022/02/09 19:31:23;;;;;;;8.27;5.20;;;;;;;6.11;100.00;99029.47;5048211;28;20250;-71
2022/02/09 19:47:43;;;;;;;9.70;5.73;;;;;;;5.98;100.00;99015.09;5044744;28;20219;-71
2022/02/09 19:50:40;;;;;;;8.23;5.67;;;;;;;5.96;100.00;99019.56;5047816;28;20316;-71
2022/02/09 19:53:25;;;;;;;9.77;5.70;;;;;;;5.84;100.00;99022.63;5046580;28;20298;-73
2022/02/09 19:55:56;;;;;;;7.40;5.43;;;;;;;5.77;100.00;99020.25;5042299;28;20208;-71
2022/02/09 19:58:30;;;;;;;9.57;5.73;;;;;;;5.66;100.00;99018.00;5037153;28;20224;-71
2022/02/09 20:00:58;;;;;;;7.07;5.10;;;;;;;5.61;100.00;99019.09;5036772;28;20294;-72
2022/02/09 20:03:24;;;;;;;9.73;5.70;;;;;;;5.59;100.00;99011.28;5040004;28;20217;-73
2022/02/09 20:05:51;;;;;;;9.67;5.90;;;;;;;5.58;100.00;99008.69;5038383;28;20209;-74
2022/02/09 20:08:18;;;;;;;9.47;6.03;;;;;;;5.40;100.00;99014.59;5034927;28;20209;-73
2022/02/09 20:10:45;;;;;;;8.67;6.23;;;;;;;5.36;100.00;99008.59;5037268;28;20247;-73
2022/02/09 20:13:12;;;;;;;9.53;6.00;;;;;;;5.41;100.00;99006.69;5035081;28;20220;-72
2022/02/09 20:15:38;;;;;;;8.77;6.20;;;;;;;5.41;100.00;99009.28;5040207;28;20213;-72
2022/02/09 20:18:05;;;;;;;9.60;5.87;;;;;;;5.32;100.00;99001.75;5036781;28;20224;-71
2022/02/09 20:20:34;;;;;;;9.17;6.03;;;;;;;5.24;100.00;99001.16;5037297;28;20216;-69
2022/02/09 20:23:00;;;;;;;10.03;5.47;;;;;;;5.18;100.00;99003.97;5052145;28;20628;-70
2022/02/09 20:25:29;;;;;;;9.63;5.80;;;;;;;5.13;100.00;99000.66;5051892;28;20219;-73
2022/02/09 20:27:56;;;;;;;7.07;4.97;;;;;;;5.20;100.00;99004.78;5052023;28;20216;-73
2022/02/09 20:30:27;;;;;;;7.60;5.13;;;;;;;5.14;100.00;99004.16;5051613;28;20732;-74
2022/02/09 20:32:57;;;;;;;7.97;5.27;;;;;;;5.14;100.00;99007.59;5042634;28;20211;-74
2022/02/09 20:35:24;;;;;;;10.07;5.20;;;;;;;5.11;100.00;99010.34;5050902;28;20308;-74
2022/02/09 20:37:54;;;;;;;8.50;5.30;;;;;;;5.05;100.00;99002.69;5051271;28;20212;-74
2022/02/09 20:40:23;;;;;;;8.90;6.10;;;;;;;5.02;100.00;99018.50;5051863;28;20226;-74
2022/02/09 20:42:56;;;;;;;10.27;6.23;;;;;;;4.97;100.00;99015.19;5051690;28;20231;-74